createdAt,value
2022-10-19T00:00:01.571Z,5.89
2022-10-19T00:02:28.480Z,5.87
2022-10-19T00:04:55.370Z,5.87
2022-10-19T00:07:22.125Z,5.84
2022-10-19T00:09:49.487Z,5.82
2022-10-19T00:12:16.447Z,5.78
2022-10-19T00:14:43.406Z,5.77
2022-10-19T00:17:10.186Z,5.76
2022-10-19T00:19:36.992Z,5.73
2022-10-19T00:22:03.852Z,5.72
2022-10-19T00:24:30.723Z,5.72
2022-10-19T00:26:57.596Z,5.73
2022-10-19T00:29:24.397Z,5.70
2022-10-19T00:31:51.729Z,5.70
2022-10-19T00:34:18.745Z,5.64
2022-10-19T00:36:46.264Z,5.56
2022-10-19T00:39:15.168Z,5.51
2022-10-19T00:41:43.023Z,5.46
2022-10-19T00:44:12.840Z,5.42
2022-10-19T00:46:42.217Z,5.37
2022-10-19T00:49:22.455Z,5.34
2022-10-19T00:51:55.389Z,5.31
2022-10-19T00:54:22.872Z,5.32
2022-10-19T00:56:53.508Z,5.28
2022-10-19T00:59:22.161Z,5.26
2022-10-19T01:01:49.875Z,5.26
2022-10-19T01:04:17.211Z,5.23
2022-10-19T01:06:44.091Z,5.18
2022-10-19T01:09:10.942Z,5.15
2022-10-19T01:11:52.922Z,5.11
2022-10-19T01:14:25.611Z,5.07
2022-10-19T01:17:17.224Z,5.02
2022-10-19T01:19:49.782Z,4.98
2022-10-19T01:22:47.606Z,4.98
2022-10-19T01:25:30.795Z,4.94
2022-10-19T01:28:16.620Z,4.94
2022-10-19T01:31:04.831Z,4.91
2022-10-19T01:33:47.532Z,4.89
2022-10-19T01:36:33.127Z,4.86
2022-10-19T01:39:17.226Z,4.79
2022-10-19T01:41:47.856Z,4.78
2022-10-19T01:44:28.412Z,4.75
2022-10-19T01:47:00.461Z,4.74
2022-10-19T01:49:35.252Z,4.71
2022-10-19T01:52:08.830Z,4.70
2022-10-19T01:54:43.168Z,4.67
2022-10-19T01:57:13.493Z,4.62
2022-10-19T01:59:41.228Z,4.59
2022-10-19T02:02:13.373Z,4.62
2022-10-19T02:04:41.427Z,4.58
2022-10-19T02:07:09.043Z,4.56
2022-10-19T02:09:36.137Z,4.51
2022-10-19T02:12:06.211Z,4.49
2022-10-19T02:14:39.161Z,4.44
2022-10-19T02:17:09.505Z,4.42
2022-10-19T02:19:36.404Z,4.34
2022-10-19T02:22:03.852Z,4.34
2022-10-19T02:24:30.648Z,4.31
2022-10-19T02:26:58.090Z,4.28
2022-10-19T02:29:24.978Z,4.27
2022-10-19T02:31:51.794Z,4.25
2022-10-19T02:34:18.702Z,4.22
2022-10-19T02:36:45.709Z,4.19
2022-10-19T02:39:12.599Z,4.17
2022-10-19T02:41:48.952Z,4.15
2022-10-19T02:44:23.077Z,4.12
2022-10-19T02:47:01.013Z,4.10
2022-10-19T02:49:29.854Z,4.12
2022-10-19T02:52:02.717Z,4.13
2022-10-19T02:54:30.015Z,4.11
2022-10-19T02:56:57.204Z,4.15
2022-10-19T02:59:24.903Z,4.16
2022-10-19T03:01:51.727Z,4.16
2022-10-19T03:04:18.579Z,4.15
2022-10-19T03:06:45.412Z,4.12
2022-10-19T03:09:12.337Z,4.10
2022-10-19T03:11:39.176Z,4.09
2022-10-19T03:14:06.055Z,4.10
2022-10-19T03:16:32.902Z,4.08
2022-10-19T03:18:59.738Z,4.06
2022-10-19T03:21:26.629Z,4.03
2022-10-19T03:23:53.496Z,4.02
2022-10-19T03:26:20.428Z,3.99
2022-10-19T03:28:47.296Z,3.97
2022-10-19T03:31:14.326Z,3.95
2022-10-19T03:33:41.189Z,3.91
2022-10-19T03:36:38.016Z,3.86
2022-10-19T03:39:08.469Z,3.86
2022-10-19T03:41:36.792Z,3.82
2022-10-19T03:44:04.578Z,3.76
2022-10-19T03:46:31.610Z,3.74
2022-10-19T03:48:59.694Z,3.72
2022-10-19T03:51:28.434Z,3.68
2022-10-19T03:53:59.603Z,3.67
2022-10-19T03:56:28.590Z,3.64
2022-10-19T03:58:56.750Z,3.64
2022-10-19T04:01:29.248Z,3.65
2022-10-19T04:03:58.188Z,3.62
2022-10-19T04:06:27.920Z,3.59
2022-10-19T04:08:55.160Z,3.54
2022-10-19T04:11:25.078Z,3.51
2022-10-19T04:13:53.513Z,3.51
2022-10-19T04:16:21.998Z,3.48
2022-10-19T04:18:48.865Z,3.49
2022-10-19T04:21:32.541Z,3.50
2022-10-19T04:24:02.154Z,3.51
2022-10-19T04:26:29.634Z,3.49
2022-10-19T04:29:00.897Z,3.48
2022-10-19T04:31:29.101Z,3.46
2022-10-19T04:33:56.845Z,3.44
2022-10-19T04:36:24.376Z,3.43
2022-10-19T04:38:51.216Z,3.43
2022-10-19T04:41:20.470Z,3.39
2022-10-19T04:43:48.331Z,3.39
2022-10-19T04:46:19.577Z,3.40
2022-10-19T04:48:49.404Z,3.40
2022-10-19T04:51:17.126Z,3.40
2022-10-19T04:53:44.547Z,3.42
2022-10-19T04:56:17.535Z,3.39
2022-10-19T04:58:45.239Z,3.37
2022-10-19T05:01:15.528Z,3.34
2022-10-19T05:03:42.454Z,3.31
2022-10-19T05:06:10.298Z,3.29
2022-10-19T05:08:38.386Z,3.30
2022-10-19T05:11:08.861Z,3.27
2022-10-19T05:13:37.063Z,3.26
2022-10-19T05:16:06.067Z,3.23
2022-10-19T05:18:33.947Z,3.24
2022-10-19T05:21:12.349Z,3.24
2022-10-19T05:23:40.485Z,3.25
2022-10-19T05:26:13.288Z,3.23
2022-10-19T05:28:40.313Z,3.22
2022-10-19T05:31:15.980Z,3.19
2022-10-19T05:33:44.153Z,3.16
2022-10-19T05:36:19.890Z,3.14
2022-10-19T05:38:48.930Z,3.16
2022-10-19T05:41:16.672Z,3.16
2022-10-19T05:43:44.543Z,3.12
2022-10-19T05:46:15.279Z,3.09
2022-10-19T05:48:42.247Z,3.06
2022-10-19T05:51:12.902Z,3.02
2022-10-19T05:53:40.119Z,3.00
2022-10-19T05:56:09.770Z,3.00
2022-10-19T05:58:36.757Z,2.97
2022-10-19T06:01:03.901Z,2.96
2022-10-19T06:03:31.319Z,2.99
2022-10-19T06:05:58.567Z,3.00
2022-10-19T06:08:25.901Z,2.98
2022-10-19T06:10:52.947Z,2.98
2022-10-19T06:13:20.579Z,2.99
2022-10-19T06:15:51.619Z,2.99
2022-10-19T06:18:18.606Z,3.00
2022-10-19T06:20:45.793Z,3.00
2022-10-19T06:23:12.699Z,3.04
2022-10-19T06:25:41.102Z,3.01
2022-10-19T06:28:08.623Z,3.01
2022-10-19T06:30:39.644Z,2.98
2022-10-19T06:33:07.219Z,3.01
2022-10-19T06:35:34.503Z,3.02
2022-10-19T06:38:01.490Z,3.05
2022-10-19T06:40:28.419Z,3.10
2022-10-19T06:42:56.454Z,3.13
2022-10-19T06:45:23.317Z,3.20
2022-10-19T06:47:50.163Z,3.24
2022-10-19T06:50:17.292Z,3.29
2022-10-19T06:52:44.288Z,3.34
2022-10-19T06:55:11.236Z,3.42
2022-10-19T06:57:38.145Z,3.50
2022-10-19T07:00:08.220Z,3.59
2022-10-19T07:02:35.058Z,3.69
2022-10-19T07:05:06.992Z,3.79
2022-10-19T07:07:34.978Z,3.91
2022-10-19T07:10:03.670Z,4.04
2022-10-19T07:12:30.494Z,4.16
2022-10-19T07:14:58.297Z,4.33
2022-10-19T07:17:25.391Z,4.47
2022-10-19T07:19:52.228Z,4.53
2022-10-19T07:22:24.346Z,4.57
2022-10-19T07:24:55.762Z,4.69
2022-10-19T07:27:22.946Z,4.83
2022-10-19T07:29:49.992Z,4.93
2022-10-19T07:32:16.929Z,5.06
2022-10-19T07:34:43.761Z,5.17
2022-10-19T07:37:10.802Z,5.28
2022-10-19T07:39:37.831Z,5.37
2022-10-19T07:42:05.206Z,5.51
2022-10-19T07:44:32.145Z,5.62
2022-10-19T07:46:59.505Z,5.74
2022-10-19T07:49:26.607Z,5.82
2022-10-19T07:51:55.308Z,5.91
2022-10-19T07:54:23.844Z,5.98
2022-10-19T07:56:50.751Z,6.05
2022-10-19T07:59:17.890Z,6.10
2022-10-19T08:01:45.372Z,6.19
2022-10-19T08:06:59.469Z,6.32
2022-10-19T08:12:15.360Z,6.48
2022-10-19T08:14:42.600Z,6.56
2022-10-19T08:17:12.032Z,6.66
2022-10-19T08:19:43.697Z,6.71
2022-10-19T08:22:11.271Z,6.77
2022-10-19T08:24:38.329Z,6.89
2022-10-19T08:27:05.619Z,7.01
2022-10-19T08:29:32.724Z,7.09
2022-10-19T08:31:59.977Z,7.20
2022-10-19T08:34:26.887Z,7.32
2022-10-19T08:36:53.926Z,7.47
2022-10-19T08:39:20.914Z,7.59
2022-10-19T08:42:04.278Z,7.68
2022-10-19T08:45:04.833Z,7.82
2022-10-19T08:48:02.674Z,7.95
2022-10-19T08:50:42.704Z,8.09
2022-10-19T08:53:22.722Z,8.22
2022-10-19T08:56:26.961Z,8.31
2022-10-19T08:59:37.552Z,8.45
2022-10-19T09:02:49.551Z,8.62
2022-10-19T09:05:43.116Z,8.74
2022-10-19T09:08:17.464Z,8.83
2022-10-19T09:10:49.053Z,8.89
2022-10-19T09:14:00.449Z,8.98
2022-10-19T09:16:30.744Z,9.09
2022-10-19T09:18:58.208Z,9.17
2022-10-19T09:21:46.045Z,9.24
2022-10-19T09:24:30.167Z,9.34
2022-10-19T09:27:00.894Z,9.43
2022-10-19T09:29:43.567Z,9.52
2022-10-19T09:32:23.734Z,9.60
2022-10-19T09:34:54.141Z,9.68
2022-10-19T09:37:26.336Z,9.75
2022-10-19T09:39:55.814Z,9.84
2022-10-19T09:42:34.140Z,9.96
2022-10-19T09:45:11.697Z,10.06
2022-10-19T09:47:41.001Z,10.15
2022-10-19T09:50:19.371Z,10.23
2022-10-19T09:52:50.766Z,10.34
2022-10-19T09:55:17.603Z,10.41
2022-10-19T09:57:58.626Z,10.51
2022-10-19T10:00:35.711Z,10.56
2022-10-19T10:03:02.909Z,10.63
2022-10-19T10:05:32.939Z,10.64
2022-10-19T10:08:00.001Z,10.71
2022-10-19T10:10:44.141Z,10.81
2022-10-19T10:13:24.063Z,10.89
2022-10-19T10:15:57.171Z,10.93
2022-10-19T10:18:25.538Z,11.02
2022-10-19T10:21:07.204Z,11.10
2022-10-19T10:23:36.657Z,11.20
2022-10-19T10:26:05.168Z,11.29
2022-10-19T10:28:32.436Z,11.35
2022-10-19T10:31:07.784Z,11.42
2022-10-19T10:33:44.758Z,11.42
2022-10-19T10:36:12.937Z,11.41
2022-10-19T10:38:46.293Z,11.46
2022-10-19T10:41:17.941Z,11.62
2022-10-19T10:44:23.641Z,11.72
2022-10-19T10:46:58.683Z,11.80
2022-10-19T10:49:28.779Z,11.90
2022-10-19T10:52:04.108Z,12.03
2022-10-19T10:54:33.087Z,12.10
2022-10-19T10:57:06.633Z,12.09
2022-10-19T10:59:44.753Z,12.13
2022-10-19T11:02:39.894Z,12.17
2022-10-19T11:05:29.905Z,12.24
2022-10-19T11:08:35.180Z,12.28
2022-10-19T11:11:20.306Z,12.48
2022-10-19T11:14:01.686Z,12.61
2022-10-19T11:16:41.427Z,12.74
2022-10-19T11:21:51.148Z,12.90
2022-10-19T11:27:19.633Z,13.22
2022-10-19T11:30:15.577Z,13.35
2022-10-19T11:32:54.403Z,13.36
2022-10-19T11:35:29.714Z,13.43
2022-10-19T11:38:20.423Z,13.53
2022-10-19T11:41:18.221Z,13.56
2022-10-19T11:44:11.940Z,13.54
2022-10-19T11:47:00.278Z,13.64
2022-10-19T11:49:50.817Z,13.67
2022-10-19T11:52:24.130Z,13.70
2022-10-19T11:55:12.631Z,13.88
2022-10-19T11:57:55.939Z,13.97
2022-10-19T12:00:39.809Z,13.90
2022-10-19T12:03:44.414Z,13.86
2022-10-19T12:06:32.209Z,13.94
2022-10-19T12:09:24.049Z,14.09
2022-10-19T12:12:03.314Z,14.13
2022-10-19T12:14:39.401Z,14.11
2022-10-19T12:20:05.579Z,14.09
2022-10-19T12:22:37.567Z,14.14
2022-10-19T12:25:05.217Z,14.19
2022-10-19T12:27:41.140Z,14.20
2022-10-19T12:30:14.829Z,14.24
2022-10-19T12:32:58.521Z,14.16
2022-10-19T12:35:48.036Z,14.25
2022-10-19T12:38:37.123Z,14.35
2022-10-19T12:41:20.202Z,14.33
2022-10-19T12:44:04.866Z,14.36
2022-10-19T12:46:41.702Z,14.48
2022-10-19T12:49:49.236Z,14.58
2022-10-19T12:52:42.671Z,14.56
2022-10-19T12:55:25.944Z,14.63
2022-10-19T12:58:23.130Z,14.61
2022-10-19T13:01:02.035Z,14.55
2022-10-19T13:03:38.824Z,14.56
2022-10-19T13:06:13.051Z,14.60
2022-10-19T13:09:09.793Z,14.55
2022-10-19T13:11:38.524Z,14.54
2022-10-19T13:14:11.558Z,14.52
2022-10-19T13:16:59.939Z,14.52
2022-10-19T13:19:27.692Z,14.56
2022-10-19T13:22:29.392Z,14.57
2022-10-19T13:25:29.129Z,14.67
2022-10-19T13:28:01.185Z,14.70
2022-10-19T13:30:37.143Z,14.60
2022-10-19T13:33:22.873Z,14.65
2022-10-19T13:35:49.902Z,14.67
2022-10-19T13:38:16.817Z,14.66
2022-10-19T13:40:49.764Z,14.66
2022-10-19T13:43:26.890Z,14.65
2022-10-19T13:46:00.616Z,14.56
2022-10-19T13:48:55.238Z,14.56
2022-10-19T13:51:45.252Z,14.60
2022-10-19T13:54:46.085Z,14.63
2022-10-19T13:57:48.900Z,14.63
2022-10-19T14:00:21.060Z,14.67
2022-10-19T14:03:10.884Z,14.64
2022-10-19T14:05:41.649Z,14.62
2022-10-19T14:08:20.805Z,14.60
2022-10-19T14:11:34.163Z,14.51
2022-10-19T14:14:28.482Z,14.39
2022-10-19T14:17:01.360Z,14.41
2022-10-19T14:19:33.915Z,14.27
2022-10-19T14:22:17.607Z,14.21
2022-10-19T14:24:44.446Z,14.14
2022-10-19T14:27:18.773Z,14.08
2022-10-19T14:29:48.340Z,14.07
2022-10-19T14:32:17.370Z,13.98
2022-10-19T14:34:47.164Z,13.93
2022-10-19T14:37:23.848Z,13.90
2022-10-19T14:40:26.405Z,13.82
2022-10-19T14:42:56.998Z,13.80
2022-10-19T14:45:29.882Z,13.84
2022-10-19T14:48:03.073Z,13.88
2022-10-19T14:50:47.875Z,13.77
2022-10-19T14:53:17.532Z,13.67
2022-10-19T14:55:44.841Z,13.60
2022-10-19T14:58:18.309Z,13.53
2022-10-19T15:00:50.022Z,13.44
2022-10-19T15:03:43.513Z,13.39
2022-10-19T15:06:31.956Z,13.35
2022-10-19T15:09:07.359Z,13.27
2022-10-19T15:11:44.635Z,13.18
2022-10-19T15:14:16.753Z,13.11
2022-10-19T15:16:49.684Z,13.07
2022-10-19T15:19:32.551Z,13.02
2022-10-19T15:22:14.759Z,12.96
2022-10-19T15:24:56.865Z,12.90
2022-10-19T15:27:31.486Z,12.83
2022-10-19T15:30:02.151Z,12.73
2022-10-19T15:32:35.489Z,12.65
2022-10-19T15:35:33.703Z,12.60
2022-10-19T15:38:23.398Z,12.51
2022-10-19T15:40:57.865Z,12.47
2022-10-19T15:43:30.680Z,12.40
2022-10-19T15:46:08.822Z,12.36
2022-10-19T15:48:41.820Z,12.29
2022-10-19T15:51:23.881Z,12.22
2022-10-19T15:53:56.511Z,12.16
2022-10-19T15:56:26.060Z,12.11
2022-10-19T15:58:55.154Z,12.06
2022-10-19T16:01:25.051Z,12.02
2022-10-19T16:03:53.255Z,11.96
2022-10-19T16:06:22.678Z,11.89
2022-10-19T16:08:51.363Z,11.82
2022-10-19T16:11:21.261Z,11.78
2022-10-19T16:13:48.314Z,11.73
2022-10-19T16:16:26.399Z,11.65
2022-10-19T16:18:53.923Z,11.58
2022-10-19T16:21:24.029Z,11.53
2022-10-19T16:23:51.496Z,11.47
2022-10-19T16:26:18.973Z,11.43
2022-10-19T16:28:45.944Z,11.38
2022-10-19T16:31:12.838Z,11.31
2022-10-19T16:33:39.857Z,11.27
2022-10-19T16:36:07.774Z,11.22
2022-10-19T16:38:35.885Z,11.17
2022-10-19T16:41:10.682Z,11.13
2022-10-19T16:43:37.872Z,11.11
2022-10-19T16:46:05.859Z,11.09
2022-10-19T16:48:33.542Z,11.04
2022-10-19T16:51:06.829Z,11.00
2022-10-19T16:53:37.135Z,10.95
2022-10-19T16:56:09.977Z,10.91
2022-10-19T16:58:37.755Z,10.86
2022-10-19T17:01:16.603Z,10.81
2022-10-19T17:03:45.473Z,10.76
2022-10-19T17:06:13.375Z,10.72
2022-10-19T17:11:33.850Z,10.65
2022-10-19T17:14:03.880Z,10.62
2022-10-19T17:16:34.242Z,10.60
2022-10-19T17:19:02.837Z,10.56
2022-10-19T17:21:32.723Z,10.52
2022-10-19T17:24:02.207Z,10.50
2022-10-19T17:26:40.335Z,10.47
2022-10-19T17:29:07.933Z,10.46
2022-10-19T17:31:36.303Z,10.43
2022-10-19T17:34:03.758Z,10.42
2022-10-19T17:36:33.341Z,10.38
2022-10-19T17:39:03.674Z,10.37
2022-10-19T17:41:31.261Z,10.34
2022-10-19T17:43:58.727Z,10.30
2022-10-19T17:46:31.955Z,10.25
2022-10-19T17:48:59.367Z,10.24
2022-10-19T17:51:29.375Z,10.20
2022-10-19T17:54:01.823Z,10.20
2022-10-19T17:56:29.381Z,10.17
2022-10-19T17:58:57.686Z,10.14
2022-10-19T18:01:25.699Z,10.14
2022-10-19T18:03:53.267Z,10.13
2022-10-19T18:06:23.286Z,10.11
2022-10-19T18:08:53.083Z,10.09
2022-10-19T18:11:22.774Z,10.08
2022-10-19T18:13:52.668Z,10.08
2022-10-19T18:16:23.353Z,10.05
2022-10-19T18:18:53.415Z,10.04
2022-10-19T18:21:26.859Z,10.02
2022-10-19T18:23:55.482Z,10.01
2022-10-19T18:26:25.585Z,10.00
2022-10-19T18:28:53.941Z,9.97
2022-10-19T18:31:24.204Z,9.94
2022-10-19T18:33:57.932Z,9.91
2022-10-19T18:36:25.123Z,9.92
2022-10-19T18:38:57.102Z,9.90
2022-10-19T18:41:24.476Z,9.85
2022-10-19T18:43:57.005Z,9.84
2022-10-19T18:46:25.886Z,9.80
2022-10-19T18:48:53.768Z,9.77
2022-10-19T18:51:22.381Z,9.76
2022-10-19T18:53:49.526Z,9.75
2022-10-19T18:56:20.276Z,9.73
2022-10-19T18:58:47.676Z,9.71
2022-10-19T19:01:24.372Z,9.68
2022-10-19T19:03:54.105Z,9.65
2022-10-19T19:06:29.743Z,9.62
2022-10-19T19:08:58.090Z,9.60
2022-10-19T19:11:27.666Z,9.57
2022-10-19T19:13:57.841Z,9.53
2022-10-19T19:16:25.419Z,9.49
2022-10-19T19:18:52.413Z,9.47
2022-10-19T19:21:27.401Z,9.44
2022-10-19T19:23:56.104Z,9.44
2022-10-19T19:26:26.677Z,9.41
2022-10-19T19:28:53.977Z,9.37
2022-10-19T19:31:21.016Z,9.36
2022-10-19T19:33:48.391Z,9.33
2022-10-19T19:36:17.567Z,9.30
2022-10-19T19:38:45.144Z,9.26
2022-10-19T19:41:14.846Z,9.25
2022-10-19T19:43:42.896Z,9.23
2022-10-19T19:46:13.634Z,9.18
2022-10-19T19:48:42.751Z,9.16
2022-10-19T19:51:12.028Z,9.14
2022-10-19T19:53:39.320Z,9.11
2022-10-19T19:56:07.471Z,9.07
2022-10-19T19:58:34.622Z,9.06
2022-10-19T20:01:12.520Z,9.02
2022-10-19T20:03:41.750Z,8.98
2022-10-19T20:06:08.661Z,8.97
2022-10-19T20:08:37.010Z,8.94
2022-10-19T20:11:07.373Z,8.93
2022-10-19T20:13:35.220Z,8.90
2022-10-19T20:16:22.649Z,8.88
2022-10-19T20:18:56.326Z,8.85
2022-10-19T20:21:25.708Z,8.82
2022-10-19T20:23:52.668Z,8.78
2022-10-19T20:26:22.430Z,8.79
2022-10-19T20:28:50.302Z,8.77
2022-10-19T20:31:17.693Z,8.75
2022-10-19T20:33:47.479Z,8.74
2022-10-19T20:36:23.155Z,8.73
2022-10-19T20:38:55.404Z,8.70
2022-10-19T20:41:24.337Z,8.68
2022-10-19T20:43:51.867Z,8.65
2022-10-19T20:46:22.472Z,8.62
2022-10-19T20:48:50.062Z,8.62
2022-10-19T20:51:18.767Z,8.59
2022-10-19T20:53:50.739Z,8.57
2022-10-19T20:56:21.829Z,8.55
2022-10-19T20:58:50.653Z,8.52
2022-10-19T21:01:19.369Z,8.51
2022-10-19T21:03:52.911Z,8.48
2022-10-19T21:06:20.997Z,8.47
2022-10-19T21:08:48.034Z,8.44
2022-10-19T21:11:20.748Z,8.42
2022-10-19T21:13:48.606Z,8.39
2022-10-19T21:16:18.108Z,8.37
2022-10-19T21:18:46.719Z,8.34
2022-10-19T21:21:17.977Z,8.34
2022-10-19T21:23:47.002Z,8.32
2022-10-19T21:26:14.420Z,8.30
2022-10-19T21:28:48.865Z,8.27
2022-10-19T21:31:17.101Z,8.26
2022-10-19T21:33:44.866Z,8.24
2022-10-19T21:36:13.504Z,8.22
2022-10-19T21:38:40.974Z,8.19
2022-10-19T21:41:12.012Z,8.16
2022-10-19T21:43:38.847Z,8.13
2022-10-19T21:46:08.220Z,8.10
2022-10-19T21:48:35.204Z,8.08
2022-10-19T21:51:16.692Z,8.07
2022-10-19T21:53:44.470Z,8.06
2022-10-19T21:56:11.427Z,8.04
2022-10-19T21:58:38.370Z,8.04
2022-10-19T22:01:06.589Z,8.01
2022-10-19T22:03:34.383Z,7.99
2022-10-19T22:06:01.469Z,7.94
2022-10-19T22:08:28.532Z,7.93
2022-10-19T22:10:55.706Z,7.89
2022-10-19T22:13:22.475Z,7.88
2022-10-19T22:15:49.404Z,7.85
2022-10-19T22:18:16.245Z,7.85
2022-10-19T22:20:43.047Z,7.84
2022-10-19T22:23:09.945Z,7.82
2022-10-19T22:25:36.778Z,7.82
2022-10-19T22:28:03.884Z,7.77
2022-10-19T22:30:30.669Z,7.76
2022-10-19T22:32:57.698Z,7.74
2022-10-19T22:35:24.456Z,7.71
2022-10-19T22:37:51.289Z,7.70
2022-10-19T22:40:18.248Z,7.70
2022-10-19T22:42:45.210Z,7.69
2022-10-19T22:45:12.066Z,7.68
2022-10-19T22:47:38.869Z,7.66
2022-10-19T22:50:06.891Z,7.67
2022-10-19T22:52:34.044Z,7.66
2022-10-19T22:55:01.298Z,7.64
2022-10-19T22:57:28.196Z,7.63
2022-10-19T22:59:55.176Z,7.60
2022-10-19T23:02:22.055Z,7.58
2022-10-19T23:04:48.814Z,7.57
2022-10-19T23:07:15.770Z,7.58
2022-10-19T23:09:42.671Z,7.55
2022-10-19T23:12:09.449Z,7.55
2022-10-19T23:14:36.331Z,7.54
2022-10-19T23:17:03.231Z,7.52
2022-10-19T23:19:30.133Z,7.52
2022-10-19T23:21:57.082Z,7.53
2022-10-19T23:24:24.068Z,7.53
2022-10-19T23:26:50.901Z,7.53
2022-10-19T23:29:17.639Z,7.51
2022-10-19T23:31:44.514Z,7.49
2022-10-19T23:34:11.396Z,7.48
2022-10-19T23:36:38.182Z,7.48
2022-10-19T23:39:04.945Z,7.47
2022-10-19T23:41:31.829Z,7.46
2022-10-19T23:43:58.731Z,7.44
2022-10-19T23:46:25.671Z,7.43
2022-10-19T23:48:52.533Z,7.44
2022-10-19T23:51:21.316Z,7.43
2022-10-19T23:53:50.079Z,7.41
2022-10-19T23:56:25.433Z,7.41
2022-10-19T23:58:53.015Z,7.39
